Weather History for KCEY - February, 2012

Change the Weather History Date:

Monday, February 27, 2012

  Actual Average (KPAH) Record (KPAH)
Temperature  
Mean Temperature 53 °F 43 °F  
Max Temperature 62 °F 53 °F 77 °F (1981)
Min Temperature 44 °F 33 °F 11 °F (2015)
Degree Days  
Heating Degree Days 12 22  
Month to date heating degree days 700  
Since 1 July heating degree days 3273  
Cooling Degree Days 0 0  
Month to date cooling degree days 0  
Year to date cooling degree days 0  
Growing Degree Days 3 (Base 50)    
Moisture  
Dew Point 33 °F    
Average Humidity 46    
Maximum Humidity 61    
Minimum Humidity 34    
Precipitation  
Precipitation 0.00 in 0.13 in 1.34 in (1962)
Month to date precipitation 3.78  
Year to date precipitation 7.46  
Snow  
Snow 0.00 in 0.10 in 3.20 in (1984)
Month to date snowfall 3.1  
Since 1 July snowfall 8.4  
Snow Depth -    
Sea Level Pressure  
Sea Level Pressure 30.34 in    
Wind  
Wind Speed 8 mph (SW)    
Max Wind Speed 13 mph    
Max Gust Speed 16 mph    
Visibility 10 miles    
Events      
T = Trace of Precipitation, MM = Missing Value Source: NWS Daily Summary

Daily Weather History Graph

Daily Weather History Graph

Search for Another Location

Airport or City:

Trip Planner

Search our weather history database for the weather conditions in past years. The results will help you decide how hot, cold, wet, or windy it might be!

Date:

Astronomy

Feb. 27, 2012 Rise Set
Actual Time 6:27 AM CST 5:45 PM CST
Civil Twilight 6:01 AM CST 6:11 PM CST
Nautical Twilight 5:31 AM CST 6:41 PM CST
Astronomical Twilight 5:01 AM CST 7:11 PM CST
Moon 9:07 AM CST (2/27) 11:27 PM CST (2/27)
Length of Visible Light 12h 10m
Length of Day
11h 18m
Waxing Crescent, 29% of the Moon is Illuminated
Feb 27
Waxing Crescent
Feb 29
First Quarter
Mar 8
Full
Mar 14
Last Quarter
Mar 22
New

Hourly Weather History & Observations

Time (CST) Temp. Windchill Dew Point Humidity Pressure Visibility Wind Dir Wind Speed Gust Speed Precip Events Conditions
12:15 AM 50.0 °F - 28.4 °F 43% 30.24 in 10.0 mi South 8.1 mph - N/A   Clear
12:35 AM 48.2 °F - 28.4 °F 46% 30.25 in 10.0 mi South 6.9 mph - N/A   Scattered Clouds
12:55 AM 50.0 °F - 28.4 °F 43% 30.26 in 10.0 mi South 5.8 mph - N/A   Overcast
1:15 AM 50.0 °F - 30.2 °F 47% 30.27 in 10.0 mi South 6.9 mph - N/A   Overcast
1:35 AM 50.0 °F - 30.2 °F 47% 30.27 in 10.0 mi SSW 5.8 mph - N/A   Overcast
1:55 AM 50.0 °F - 30.2 °F 47% 30.28 in 10.0 mi SSW 6.9 mph - N/A   Overcast
2:15 AM 50.0 °F - 32.0 °F 50% 30.28 in 10.0 mi SSW 6.9 mph - N/A   Overcast
2:35 AM 50.0 °F - 32.0 °F 50% 30.28 in 10.0 mi South 6.9 mph - N/A   Overcast
2:55 AM 50.0 °F - 32.0 °F 50% 30.28 in 10.0 mi South 4.6 mph - N/A   Overcast
3:15 AM 48.2 °F - 32.0 °F 54% 30.28 in 10.0 mi South 5.8 mph - N/A   Overcast
3:35 AM 48.2 °F - 32.0 °F 54% 30.28 in 10.0 mi South 8.1 mph - N/A   Overcast
3:55 AM 48.2 °F - 32.0 °F 54% 30.28 in 10.0 mi South 9.2 mph - N/A   Overcast
4:15 AM 48.2 °F - 32.0 °F 54% 30.29 in 10.0 mi South 8.1 mph - N/A   Overcast
4:35 AM 48.2 °F - 32.0 °F 54% 30.29 in 10.0 mi South 8.1 mph - N/A   Mostly Cloudy
4:55 AM 48.2 °F - 32.0 °F 54% 30.30 in 10.0 mi South 4.6 mph - N/A   Clear
5:15 AM 46.4 °F 43.5 °F 32.0 °F 57% 30.30 in 10.0 mi South 5.8 mph - N/A   Mostly Cloudy
5:35 AM 46.4 °F 43.5 °F 32.0 °F 57% 30.31 in 10.0 mi South 5.8 mph - N/A   Scattered Clouds
5:55 AM 46.4 °F 42.9 °F 32.0 °F 57% 30.31 in 10.0 mi South 6.9 mph - N/A   Clear
6:15 AM 46.4 °F 42.9 °F 32.0 °F 57% 30.31 in 10.0 mi South 6.9 mph - N/A   Clear
6:55 AM 44.6 °F 41.4 °F 32.0 °F 61% 30.33 in 10.0 mi South 5.8 mph - N/A   Clear
7:15 AM 46.4 °F 43.5 °F 32.0 °F 57% 30.33 in 10.0 mi South 5.8 mph - N/A   Clear
7:35 AM 48.2 °F - 33.8 °F 58% 30.34 in 10.0 mi SSW 5.8 mph - N/A   Clear
7:55 AM 50.0 °F - 35.6 °F 58% 30.35 in 10.0 mi South 9.2 mph - N/A   Clear
8:15 AM 50.0 °F - 35.6 °F 58% 30.36 in 10.0 mi SSW 9.2 mph 16.1 mph N/A   Clear
8:35 AM 53.6 °F - 37.4 °F 54% 30.36 in 10.0 mi SW 9.2 mph - N/A   Clear
8:55 AM 53.6 °F - 37.4 °F 54% 30.36 in 10.0 mi SW 9.2 mph - N/A   Clear
9:15 AM 55.4 °F - 37.4 °F 51% 30.37 in 10.0 mi WSW 11.5 mph - N/A   Clear
9:35 AM 57.2 °F - 37.4 °F 48% 30.38 in 10.0 mi WSW 10.4 mph - N/A   Clear
9:55 AM 57.2 °F - 37.4 °F 48% 30.38 in 10.0 mi WSW 10.4 mph - N/A   Clear
10:15 AM 57.2 °F - 35.6 °F 44% 30.38 in 10.0 mi West 8.1 mph - N/A   Clear
10:35 AM 59.0 °F - 35.6 °F 42% 30.39 in 10.0 mi WNW 9.2 mph - N/A   Clear
10:55 AM 59.0 °F - 35.6 °F 42% 30.39 in 10.0 mi SW 4.6 mph - N/A   Clear
11:15 AM 59.0 °F - 35.6 °F 42% 30.39 in 10.0 mi NW 4.6 mph - N/A   Clear
11:35 AM 59.0 °F - 35.6 °F 42% 30.39 in 10.0 mi NNW 6.9 mph - N/A   Clear
11:55 AM 59.0 °F - 35.6 °F 42% 30.38 in 10.0 mi North 3.5 mph - N/A   Clear
12:15 PM 60.8 °F - 35.6 °F 39% 30.37 in 10.0 mi North 5.8 mph - N/A   Clear
12:35 PM 60.8 °F - 35.6 °F 39% 30.37 in 10.0 mi North 3.5 mph - N/A   Clear
12:55 PM 60.8 °F - 35.6 °F 39% 30.36 in 10.0 mi North 10.4 mph - N/A   Clear
1:15 PM 60.8 °F - 35.6 °F 39% 30.36 in 10.0 mi North 10.4 mph - N/A   Clear
1:35 PM 62.6 °F - 35.6 °F 37% 30.35 in 10.0 mi North 10.4 mph - N/A   Clear
1:55 PM 62.6 °F - 35.6 °F 37% 30.35 in 10.0 mi NNE 10.4 mph 16.1 mph N/A   Clear
2:15 PM 62.6 °F - 35.6 °F 37% 30.35 in 10.0 mi NNE 9.2 mph - N/A   Clear
2:35 PM 62.6 °F - 35.6 °F 37% 30.35 in 10.0 mi NE 10.4 mph - N/A   Clear
2:55 PM 62.6 °F - 35.6 °F 37% 30.35 in 10.0 mi NNE 8.1 mph - N/A   Clear
3:15 PM 62.6 °F - 33.8 °F 34% 30.35 in 10.0 mi North 12.7 mph - N/A   Clear
3:35 PM 62.6 °F - 33.8 °F 34% 30.35 in 10.0 mi NNE 12.7 mph - N/A   Clear
3:55 PM 60.8 °F - 32.0 °F 34% 30.35 in 10.0 mi NNE 11.5 mph - N/A   Clear
4:15 PM 59.0 °F - 32.0 °F 36% 30.36 in 10.0 mi NNE 10.4 mph - N/A   Clear
4:35 PM 59.0 °F - 32.0 °F 36% 30.36 in 10.0 mi NNE 11.5 mph - N/A   Clear
4:55 PM 59.0 °F - 32.0 °F 36% 30.36 in 10.0 mi North 10.4 mph - N/A   Clear
5:15 PM 57.2 °F - 32.0 °F 38% 30.37 in 10.0 mi NNE 12.7 mph - N/A   Partly Cloudy
5:35 PM 55.4 °F - 30.2 °F 38% 30.38 in 10.0 mi North 9.2 mph - N/A   Clear
5:55 PM 55.4 °F - 30.2 °F 38% 30.38 in 10.0 mi North 9.2 mph - N/A   Clear
6:15 PM 53.6 °F - 30.2 °F 41% 30.39 in 10.0 mi North 10.4 mph - N/A   Clear
6:35 PM 53.6 °F - 30.2 °F 41% 30.39 in 10.0 mi North 10.4 mph - N/A   Clear
6:55 PM 51.8 °F - 28.4 °F 41% 30.40 in 10.0 mi North 9.2 mph - N/A   Clear
7:15 PM 50.0 °F - 30.2 °F 47% 30.40 in 10.0 mi NNE 9.2 mph - N/A   Clear
7:35 PM 50.0 °F - 28.4 °F 43% 30.39 in 10.0 mi North 11.5 mph - N/A   Clear
7:55 PM 48.2 °F - 30.2 °F 50% 30.40 in 10.0 mi NNE 9.2 mph - N/A   Clear
8:15 PM 48.2 °F - 30.2 °F 50% 30.40 in 10.0 mi NNE 9.2 mph - N/A   Clear
8:35 PM 48.2 °F - 28.4 °F 46% 30.40 in 10.0 mi NNE 9.2 mph - N/A   Clear
8:55 PM 46.4 °F 41.9 °F 30.2 °F 53% 30.40 in 10.0 mi NNE 9.2 mph - N/A   Clear
9:15 PM 46.4 °F 42.4 °F 28.4 °F 50% 30.41 in 10.0 mi NNE 8.1 mph - N/A   Clear
9:35 PM 46.4 °F 42.4 °F 28.4 °F 50% 30.41 in 10.0 mi NNE 8.1 mph - N/A   Clear
9:55 PM 46.4 °F 41.5 °F 28.4 °F 50% 30.41 in 10.0 mi NNE 10.4 mph - N/A   Clear
10:15 PM 44.6 °F 40.2 °F 28.4 °F 53% 30.41 in 10.0 mi NNE 8.1 mph - N/A   Clear
10:35 PM 44.6 °F 40.7 °F 28.4 °F 53% 30.41 in 10.0 mi NE 6.9 mph - N/A   Clear
10:55 PM 42.8 °F 37.5 °F 28.4 °F 57% 30.40 in 10.0 mi NE 9.2 mph - N/A   Clear
11:15 PM 42.8 °F 38.0 °F 28.4 °F 57% 30.40 in 10.0 mi NE 8.1 mph - N/A   Clear
11:35 PM 42.8 °F 38.0 °F 26.6 °F 53% 30.39 in 10.0 mi NE 8.1 mph - N/A   Clear
11:55 PM 42.8 °F 38.0 °F 26.6 °F 53% 30.39 in 10.0 mi NE 8.1 mph - N/A   Clear